sensor_id;sensor_type;location;lat;lon;timestamp;P1;durP1;ratioP1;P2;durP2;ratioP2
66189;SDS011;52992;52.084;5.412;2023-08-12T00:01:59;7.57;;;4.73;;
66189;SDS011;52992;52.084;5.412;2023-08-12T00:04:26;8.60;;;5.30;;
66189;SDS011;52992;52.084;5.412;2023-08-12T00:06:53;7.67;;;4.97;;
66189;SDS011;52992;52.084;5.412;2023-08-12T00:09:20;7.47;;;4.80;;
66189;SDS011;52992;52.084;5.412;2023-08-12T00:11:47;8.10;;;4.70;;
66189;SDS011;52992;52.084;5.412;2023-08-12T00:14:14;8.90;;;4.60;;
66189;SDS011;52992;52.084;5.412;2023-08-12T00:16:41;7.17;;;4.33;;
66189;SDS011;52992;52.084;5.412;2023-08-12T00:19:08;8.40;;;4.97;;
66189;SDS011;52992;52.084;5.412;2023-08-12T00:21:35;11.83;;;4.67;;
66189;SDS011;52992;52.084;5.412;2023-08-12T00:24:02;8.47;;;5.10;;
66189;SDS011;52992;52.084;5.412;2023-08-12T00:26:29;7.40;;;4.60;;
66189;SDS011;52992;52.084;5.412;2023-08-12T00:28:56;12.37;;;5.33;;
66189;SDS011;52992;52.084;5.412;2023-08-12T00:31:23;9.70;;;4.60;;
66189;SDS011;52992;52.084;5.412;2023-08-12T00:33:50;9.27;;;5.17;;
66189;SDS011;52992;52.084;5.412;2023-08-12T00:36:17;7.73;;;4.70;;
66189;SDS011;52992;52.084;5.412;2023-08-12T00:38:44;6.70;;;4.73;;
66189;SDS011;52992;52.084;5.412;2023-08-12T00:41:10;7.80;;;4.93;;
66189;SDS011;52992;52.084;5.412;2023-08-12T00:43:37;6.70;;;5.10;;
66189;SDS011;52992;52.084;5.412;2023-08-12T00:46:04;7.60;;;4.57;;
66189;SDS011;52992;52.084;5.412;2023-08-12T00:48:31;7.00;;;4.67;;
66189;SDS011;52992;52.084;5.412;2023-08-12T00:50:59;9.47;;;4.90;;
66189;SDS011;52992;52.084;5.412;2023-08-12T00:53:26;9.47;;;5.43;;
66189;SDS011;52992;52.084;5.412;2023-08-12T00:55:54;8.13;;;5.27;;
66189;SDS011;52992;52.084;5.412;2023-08-12T00:58:21;10.67;;;5.40;;
66189;SDS011;52992;52.084;5.412;2023-08-12T01:00:48;8.90;;;5.10;;
66189;SDS011;52992;52.084;5.412;2023-08-12T01:03:17;9.40;;;6.10;;
66189;SDS011;52992;52.084;5.412;2023-08-12T01:05:46;8.27;;;5.83;;
66189;SDS011;52992;52.084;5.412;2023-08-12T01:08:13;8.03;;;5.60;;
66189;SDS011;52992;52.084;5.412;2023-08-12T01:10:42;9.33;;;6.27;;
66189;SDS011;52992;52.084;5.412;2023-08-12T01:16:18;9.77;;;7.40;;
66189;SDS011;52992;52.084;5.412;2023-08-12T01:18:47;9.10;;;6.43;;
66189;SDS011;52992;52.084;5.412;2023-08-12T01:21:16;9.60;;;6.53;;
66189;SDS011;52992;52.084;5.412;2023-08-12T01:23:47;14.03;;;7.70;;
66189;SDS011;52992;52.084;5.412;2023-08-12T01:26:14;10.90;;;7.20;;
66189;SDS011;52992;52.084;5.412;2023-08-12T01:28:41;10.77;;;7.10;;
66189;SDS011;52992;52.084;5.412;2023-08-12T01:31:12;9.87;;;7.63;;
66189;SDS011;52992;52.084;5.412;2023-08-12T01:36:40;13.27;;;7.70;;
66189;SDS011;52992;52.084;5.412;2023-08-12T01:39:11;12.63;;;8.40;;
66189;SDS011;52992;52.084;5.412;2023-08-12T01:41:38;13.40;;;8.07;;
66189;SDS011;52992;52.084;5.412;2023-08-12T01:44:05;13.03;;;7.87;;
66189;SDS011;52992;52.084;5.412;2023-08-12T01:46:34;11.83;;;7.80;;
66189;SDS011;52992;52.084;5.412;2023-08-12T01:49:02;15.00;;;8.53;;
66189;SDS011;52992;52.084;5.412;2023-08-12T01:51:29;14.27;;;8.30;;
66189;SDS011;52992;52.084;5.412;2023-08-12T01:53:56;16.30;;;8.30;;
66189;SDS011;52992;52.084;5.412;2023-08-12T01:56:23;14.63;;;9.20;;
66189;SDS011;52992;52.084;5.412;2023-08-12T01:58:50;15.13;;;8.93;;
66189;SDS011;52992;52.084;5.412;2023-08-12T02:01:17;12.53;;;8.67;;
66189;SDS011;52992;52.084;5.412;2023-08-12T02:03:43;11.93;;;8.13;;
66189;SDS011;52992;52.084;5.412;2023-08-12T02:06:10;12.83;;;8.47;;
66189;SDS011;52992;52.084;5.412;2023-08-12T02:08:37;14.43;;;8.40;;
66189;SDS011;52992;52.084;5.412;2023-08-12T02:11:04;12.50;;;8.43;;
66189;SDS011;52992;52.084;5.412;2023-08-12T02:13:31;12.20;;;8.20;;
66189;SDS011;52992;52.084;5.412;2023-08-12T02:15:59;12.90;;;7.93;;
66189;SDS011;52992;52.084;5.412;2023-08-12T02:18:25;14.33;;;8.47;;
66189;SDS011;52992;52.084;5.412;2023-08-12T02:20:52;13.90;;;8.50;;
66189;SDS011;52992;52.084;5.412;2023-08-12T02:23:19;15.63;;;8.50;;
66189;SDS011;52992;52.084;5.412;2023-08-12T02:25:46;11.13;;;7.57;;
66189;SDS011;52992;52.084;5.412;2023-08-12T02:28:13;11.00;;;7.30;;
66189;SDS011;52992;52.084;5.412;2023-08-12T02:30:42;15.33;;;7.93;;
66189;SDS011;52992;52.084;5.412;2023-08-12T02:33:09;15.13;;;8.27;;
66189;SDS011;52992;52.084;5.412;2023-08-12T02:35:37;14.83;;;8.30;;
66189;SDS011;52992;52.084;5.412;2023-08-12T02:38:04;15.30;;;8.53;;
66189;SDS011;52992;52.084;5.412;2023-08-12T02:40:31;13.70;;;8.40;;
66189;SDS011;52992;52.084;5.412;2023-08-12T02:42:58;9.50;;;7.90;;
66189;SDS011;52992;52.084;5.412;2023-08-12T02:45:25;15.23;;;8.43;;
66189;SDS011;52992;52.084;5.412;2023-08-12T02:47:52;13.57;;;8.57;;
66189;SDS011;52992;52.084;5.412;2023-08-12T02:50:19;11.97;;;8.57;;
66189;SDS011;52992;52.084;5.412;2023-08-12T02:52:46;12.40;;;8.70;;
66189;SDS011;52992;52.084;5.412;2023-08-12T02:55:13;15.70;;;9.03;;
66189;SDS011;52992;52.084;5.412;2023-08-12T02:57:40;20.93;;;8.93;;
66189;SDS011;52992;52.084;5.412;2023-08-12T03:00:07;14.47;;;9.20;;
66189;SDS011;52992;52.084;5.412;2023-08-12T03:02:35;14.97;;;8.97;;
66189;SDS011;52992;52.084;5.412;2023-08-12T03:05:01;13.17;;;8.90;;
66189;SDS011;52992;52.084;5.412;2023-08-12T03:07:29;13.27;;;9.47;;
66189;SDS011;52992;52.084;5.412;2023-08-12T03:09:56;13.97;;;9.63;;
66189;SDS011;52992;52.084;5.412;2023-08-12T03:12:23;17.03;;;9.00;;
66189;SDS011;52992;52.084;5.412;2023-08-12T03:14:50;13.13;;;10.23;;
66189;SDS011;52992;52.084;5.412;2023-08-12T03:17:17;17.10;;;9.03;;
66189;SDS011;52992;52.084;5.412;2023-08-12T03:19:44;16.23;;;10.30;;
66189;SDS011;52992;52.084;5.412;2023-08-12T03:22:11;15.00;;;9.40;;
66189;SDS011;52992;52.084;5.412;2023-08-12T03:24:39;17.70;;;9.77;;
66189;SDS011;52992;52.084;5.412;2023-08-12T03:27:06;14.67;;;9.53;;
66189;SDS011;52992;52.084;5.412;2023-08-12T03:29:33;16.30;;;9.57;;
66189;SDS011;52992;52.084;5.412;2023-08-12T03:32:00;13.47;;;9.40;;
66189;SDS011;52992;52.084;5.412;2023-08-12T03:34:30;17.10;;;10.23;;
66189;SDS011;52992;52.084;5.412;2023-08-12T03:36:58;14.17;;;8.87;;
66189;SDS011;52992;52.084;5.412;2023-08-12T03:39:26;12.83;;;9.77;;
66189;SDS011;52992;52.084;5.412;2023-08-12T03:41:53;15.37;;;9.30;;
66189;SDS011;52992;52.084;5.412;2023-08-12T03:44:20;12.57;;;9.10;;
66189;SDS011;52992;52.084;5.412;2023-08-12T03:46:47;14.07;;;9.77;;
66189;SDS011;52992;52.084;5.412;2023-08-12T03:49:14;14.23;;;10.40;;
66189;SDS011;52992;52.084;5.412;2023-08-12T03:51:43;16.53;;;9.27;;
66189;SDS011;52992;52.084;5.412;2023-08-12T03:54:09;18.30;;;9.43;;
66189;SDS011;52992;52.084;5.412;2023-08-12T03:56:36;18.70;;;10.50;;
66189;SDS011;52992;52.084;5.412;2023-08-12T03:59:03;15.87;;;9.47;;
66189;SDS011;52992;52.084;5.412;2023-08-12T04:01:30;15.63;;;10.40;;
66189;SDS011;52992;52.084;5.412;2023-08-12T04:03:57;16.27;;;10.47;;
66189;SDS011;52992;52.084;5.412;2023-08-12T04:06:25;15.60;;;11.10;;
66189;SDS011;52992;52.084;5.412;2023-08-12T04:08:52;15.80;;;10.67;;
66189;SDS011;52992;52.084;5.412;2023-08-12T04:11:18;17.57;;;10.90;;
66189;SDS011;52992;52.084;5.412;2023-08-12T04:13:45;13.13;;;9.90;;
66189;SDS011;52992;52.084;5.412;2023-08-12T04:16:12;15.13;;;9.93;;
66189;SDS011;52992;52.084;5.412;2023-08-12T04:18:39;20.37;;;11.77;;
66189;SDS011;52992;52.084;5.412;2023-08-12T04:21:06;19.00;;;12.03;;
66189;SDS011;52992;52.084;5.412;2023-08-12T04:23:33;19.03;;;11.97;;
66189;SDS011;52992;52.084;5.412;2023-08-12T04:26:00;20.53;;;12.10;;
66189;SDS011;52992;52.084;5.412;2023-08-12T04:28:28;18.03;;;12.13;;
66189;SDS011;52992;52.084;5.412;2023-08-12T04:30:55;17.33;;;11.53;;
66189;SDS011;52992;52.084;5.412;2023-08-12T04:33:24;24.30;;;13.03;;
66189;SDS011;52992;52.084;5.412;2023-08-12T04:35:52;16.93;;;11.43;;
66189;SDS011;52992;52.084;5.412;2023-08-12T04:38:20;17.57;;;11.60;;
66189;SDS011;52992;52.084;5.412;2023-08-12T04:40:49;17.67;;;12.73;;
66189;SDS011;52992;52.084;5.412;2023-08-12T04:43:16;16.60;;;11.90;;
66189;SDS011;52992;52.084;5.412;2023-08-12T04:45:46;15.27;;;10.73;;
66189;SDS011;52992;52.084;5.412;2023-08-12T04:48:16;16.27;;;11.60;;
66189;SDS011;52992;52.084;5.412;2023-08-12T04:50:43;19.00;;;11.03;;
66189;SDS011;52992;52.084;5.412;2023-08-12T04:53:10;17.87;;;10.70;;
66189;SDS011;52992;52.084;5.412;2023-08-12T04:55:37;18.77;;;11.97;;
66189;SDS011;52992;52.084;5.412;2023-08-12T04:58:04;13.67;;;10.77;;
66189;SDS011;52992;52.084;5.412;2023-08-12T05:00:32;15.60;;;10.33;;
66189;SDS011;52992;52.084;5.412;2023-08-12T05:02:59;17.13;;;11.13;;
66189;SDS011;52992;52.084;5.412;2023-08-12T05:05:27;19.43;;;10.60;;
66189;SDS011;52992;52.084;5.412;2023-08-12T05:07:54;14.00;;;9.87;;
66189;SDS011;52992;52.084;5.412;2023-08-12T05:10:21;14.00;;;10.03;;
66189;SDS011;52992;52.084;5.412;2023-08-12T05:12:50;13.53;;;9.27;;
66189;SDS011;52992;52.084;5.412;2023-08-12T05:15:18;13.63;;;9.40;;
66189;SDS011;52992;52.084;5.412;2023-08-12T05:17:47;14.20;;;9.40;;
66189;SDS011;52992;52.084;5.412;2023-08-12T05:20:17;17.30;;;9.70;;
66189;SDS011;52992;52.084;5.412;2023-08-12T05:22:44;15.10;;;9.57;;
66189;SDS011;52992;52.084;5.412;2023-08-12T05:25:11;15.70;;;8.93;;
66189;SDS011;52992;52.084;5.412;2023-08-12T05:27:38;14.57;;;9.70;;
66189;SDS011;52992;52.084;5.412;2023-08-12T05:30:05;12.47;;;9.63;;
66189;SDS011;52992;52.084;5.412;2023-08-12T05:32:32;16.23;;;10.77;;
66189;SDS011;52992;52.084;5.412;2023-08-12T05:34:59;17.07;;;10.83;;
66189;SDS011;52992;52.084;5.412;2023-08-12T05:37:26;14.40;;;10.87;;
66189;SDS011;52992;52.084;5.412;2023-08-12T05:39:53;17.80;;;10.23;;
66189;SDS011;52992;52.084;5.412;2023-08-12T05:42:20;18.17;;;9.93;;
66189;SDS011;52992;52.084;5.412;2023-08-12T05:44:47;15.67;;;10.17;;
66189;SDS011;52992;52.084;5.412;2023-08-12T05:47:13;16.73;;;10.77;;
66189;SDS011;52992;52.084;5.412;2023-08-12T05:49:40;14.87;;;10.13;;
66189;SDS011;52992;52.084;5.412;2023-08-12T05:52:08;19.90;;;11.20;;
66189;SDS011;52992;52.084;5.412;2023-08-12T05:54:36;15.47;;;10.80;;
66189;SDS011;52992;52.084;5.412;2023-08-12T05:57:03;14.63;;;10.13;;
66189;SDS011;52992;52.084;5.412;2023-08-12T05:59:30;16.53;;;10.60;;
66189;SDS011;52992;52.084;5.412;2023-08-12T06:01:57;12.93;;;10.10;;
66189;SDS011;52992;52.084;5.412;2023-08-12T06:04:24;17.83;;;10.07;;
66189;SDS011;52992;52.084;5.412;2023-08-12T06:06:51;14.03;;;9.13;;
66189;SDS011;52992;52.084;5.412;2023-08-12T06:09:18;11.57;;;8.63;;
66189;SDS011;52992;52.084;5.412;2023-08-12T06:11:45;13.90;;;9.60;;
66189;SDS011;52992;52.084;5.412;2023-08-12T06:14:12;12.30;;;9.13;;
66189;SDS011;52992;52.084;5.412;2023-08-12T06:16:38;10.93;;;8.43;;
66189;SDS011;52992;52.084;5.412;2023-08-12T06:19:06;13.10;;;8.33;;
66189;SDS011;52992;52.084;5.412;2023-08-12T06:21:32;12.27;;;7.87;;
66189;SDS011;52992;52.084;5.412;2023-08-12T06:24:00;12.37;;;7.70;;
66189;SDS011;52992;52.084;5.412;2023-08-12T06:26:27;9.67;;;7.53;;
66189;SDS011;52992;52.084;5.412;2023-08-12T06:28:54;9.60;;;7.20;;
66189;SDS011;52992;52.084;5.412;2023-08-12T06:31:20;10.03;;;7.37;;
66189;SDS011;52992;52.084;5.412;2023-08-12T06:33:47;10.03;;;7.20;;
66189;SDS011;52992;52.084;5.412;2023-08-12T06:36:14;9.27;;;7.17;;
66189;SDS011;52992;52.084;5.412;2023-08-12T06:38:41;8.47;;;6.97;;
66189;SDS011;52992;52.084;5.412;2023-08-12T06:41:08;11.97;;;7.37;;
66189;SDS011;52992;52.084;5.412;2023-08-12T06:43:35;8.97;;;6.60;;
66189;SDS011;52992;52.084;5.412;2023-08-12T06:46:02;10.23;;;7.10;;
66189;SDS011;52992;52.084;5.412;2023-08-12T06:48:29;7.97;;;6.50;;
66189;SDS011;52992;52.084;5.412;2023-08-12T06:50:56;8.50;;;6.87;;
66189;SDS011;52992;52.084;5.412;2023-08-12T06:53:24;12.27;;;6.93;;
66189;SDS011;52992;52.084;5.412;2023-08-12T06:55:52;10.97;;;7.17;;
66189;SDS011;52992;52.084;5.412;2023-08-12T06:58:19;8.50;;;6.67;;
66189;SDS011;52992;52.084;5.412;2023-08-12T07:00:46;8.77;;;6.90;;
66189;SDS011;52992;52.084;5.412;2023-08-12T07:03:13;10.17;;;7.47;;
66189;SDS011;52992;52.084;5.412;2023-08-12T07:05:40;9.83;;;6.93;;
66189;SDS011;52992;52.084;5.412;2023-08-12T07:08:06;10.77;;;6.60;;
66189;SDS011;52992;52.084;5.412;2023-08-12T07:10:33;10.67;;;7.03;;
66189;SDS011;52992;52.084;5.412;2023-08-12T07:13:00;11.93;;;7.20;;
66189;SDS011;52992;52.084;5.412;2023-08-12T07:15:27;9.77;;;6.60;;
66189;SDS011;52992;52.084;5.412;2023-08-12T07:17:54;11.67;;;7.30;;
66189;SDS011;52992;52.084;5.412;2023-08-12T07:20:22;12.73;;;7.27;;
66189;SDS011;52992;52.084;5.412;2023-08-12T07:22:48;10.13;;;6.60;;
66189;SDS011;52992;52.084;5.412;2023-08-12T07:25:15;10.30;;;7.47;;
66189;SDS011;52992;52.084;5.412;2023-08-12T07:27:43;10.90;;;6.73;;
66189;SDS011;52992;52.084;5.412;2023-08-12T07:30:10;13.70;;;7.30;;
66189;SDS011;52992;52.084;5.412;2023-08-12T07:32:37;9.50;;;5.80;;
66189;SDS011;52992;52.084;5.412;2023-08-12T07:35:04;22.47;;;5.50;;
66189;SDS011;52992;52.084;5.412;2023-08-12T07:37:32;14.97;;;5.50;;
66189;SDS011;52992;52.084;5.412;2023-08-12T07:39:59;11.57;;;4.93;;
66189;SDS011;52992;52.084;5.412;2023-08-12T07:42:26;10.53;;;5.93;;
66189;SDS011;52992;52.084;5.412;2023-08-12T07:44:53;8.27;;;6.33;;
66189;SDS011;52992;52.084;5.412;2023-08-12T07:47:20;12.07;;;5.60;;
66189;SDS011;52992;52.084;5.412;2023-08-12T07:49:47;10.60;;;6.17;;
66189;SDS011;52992;52.084;5.412;2023-08-12T07:52:14;7.23;;;5.80;;
66189;SDS011;52992;52.084;5.412;2023-08-12T07:54:40;12.83;;;6.07;;
66189;SDS011;52992;52.084;5.412;2023-08-12T07:57:07;12.17;;;5.93;;
66189;SDS011;52992;52.084;5.412;2023-08-12T07:59:34;13.43;;;6.03;;
66189;SDS011;52992;52.084;5.412;2023-08-12T08:02:01;10.07;;;6.03;;
66189;SDS011;52992;52.084;5.412;2023-08-12T08:04:28;11.03;;;7.40;;
66189;SDS011;52992;52.084;5.412;2023-08-12T08:06:55;9.20;;;6.33;;
66189;SDS011;52992;52.084;5.412;2023-08-12T08:09:22;10.03;;;6.90;;
66189;SDS011;52992;52.084;5.412;2023-08-12T08:11:49;12.93;;;6.77;;
66189;SDS011;52992;52.084;5.412;2023-08-12T08:14:16;12.87;;;5.90;;
66189;SDS011;52992;52.084;5.412;2023-08-12T08:16:42;7.37;;;5.30;;
66189;SDS011;52992;52.084;5.412;2023-08-12T08:19:10;12.00;;;5.33;;
66189;SDS011;52992;52.084;5.412;2023-08-12T08:21:39;10.37;;;5.20;;
66189;SDS011;52992;52.084;5.412;2023-08-12T08:24:06;14.87;;;4.63;;
66189;SDS011;52992;52.084;5.412;2023-08-12T08:26:34;10.13;;;4.20;;
66189;SDS011;52992;52.084;5.412;2023-08-12T08:29:01;4.20;;;3.80;;
66189;SDS011;52992;52.084;5.412;2023-08-12T08:31:29;6.83;;;3.63;;
66189;SDS011;52992;52.084;5.412;2023-08-12T08:33:56;4.63;;;3.37;;
66189;SDS011;52992;52.084;5.412;2023-08-12T08:36:23;7.77;;;3.00;;
66189;SDS011;52992;52.084;5.412;2023-08-12T08:38:50;8.00;;;2.80;;
66189;SDS011;52992;52.084;5.412;2023-08-12T08:41:17;6.67;;;2.60;;
66189;SDS011;52992;52.084;5.412;2023-08-12T08:43:43;10.53;;;2.60;;
66189;SDS011;52992;52.084;5.412;2023-08-12T08:46:14;3.50;;;2.63;;
66189;SDS011;52992;52.084;5.412;2023-08-12T08:48:43;4.77;;;2.80;;
66189;SDS011;52992;52.084;5.412;2023-08-12T08:51:10;9.17;;;2.60;;
66189;SDS011;52992;52.084;5.412;2023-08-12T08:53:38;2.97;;;2.70;;
66189;SDS011;52992;52.084;5.412;2023-08-12T08:56:09;5.03;;;2.60;;
66189;SDS011;52992;52.084;5.412;2023-08-12T08:58:41;15.70;;;2.73;;
66189;SDS011;52992;52.084;5.412;2023-08-12T09:01:08;11.97;;;2.53;;
66189;SDS011;52992;52.084;5.412;2023-08-12T09:03:37;7.03;;;2.10;;
66189;SDS011;52992;52.084;5.412;2023-08-12T09:06:05;2.73;;;2.23;;
66189;SDS011;52992;52.084;5.412;2023-08-12T09:08:32;2.27;;;1.83;;
66189;SDS011;52992;52.084;5.412;2023-08-12T09:11:00;4.30;;;1.70;;
66189;SDS011;52992;52.084;5.412;2023-08-12T09:13:29;8.07;;;1.87;;
66189;SDS011;52992;52.084;5.412;2023-08-12T09:15:57;6.60;;;1.77;;
66189;SDS011;52992;52.084;5.412;2023-08-12T09:18:25;6.33;;;1.90;;
66189;SDS011;52992;52.084;5.412;2023-08-12T09:20:55;6.07;;;1.97;;
66189;SDS011;52992;52.084;5.412;2023-08-12T09:23:22;2.73;;;1.87;;
66189;SDS011;52992;52.084;5.412;2023-08-12T09:25:49;7.40;;;2.00;;
66189;SDS011;52992;52.084;5.412;2023-08-12T09:28:16;15.57;;;2.60;;
66189;SDS011;52992;52.084;5.412;2023-08-12T09:30:43;7.93;;;1.87;;
66189;SDS011;52992;52.084;5.412;2023-08-12T09:33:23;8.37;;;2.37;;
66189;SDS011;52992;52.084;5.412;2023-08-12T09:35:54;9.40;;;1.90;;
66189;SDS011;52992;52.084;5.412;2023-08-12T09:38:23;10.33;;;2.20;;
66189;SDS011;52992;52.084;5.412;2023-08-12T09:40:51;9.63;;;2.53;;
66189;SDS011;52992;52.084;5.412;2023-08-12T09:43:22;3.93;;;2.00;;
66189;SDS011;52992;52.084;5.412;2023-08-12T09:45:50;7.17;;;2.27;;
66189;SDS011;52992;52.084;5.412;2023-08-12T09:48:17;7.87;;;2.47;;
66189;SDS011;52992;52.084;5.412;2023-08-12T09:50:44;6.83;;;2.20;;
66189;SDS011;52992;52.084;5.412;2023-08-12T09:53:11;9.33;;;3.50;;
66189;SDS011;52992;52.084;5.412;2023-08-12T09:55:38;10.73;;;2.80;;
66189;SDS011;52992;52.084;5.412;2023-08-12T09:58:06;10.13;;;2.80;;
66189;SDS011;52992;52.084;5.412;2023-08-12T10:00:38;10.40;;;3.47;;
66189;SDS011;52992;52.084;5.412;2023-08-12T10:03:07;20.63;;;4.03;;
66189;SDS011;52992;52.084;5.412;2023-08-12T10:05:37;9.67;;;2.80;;
66189;SDS011;52992;52.084;5.412;2023-08-12T10:08:04;6.33;;;2.20;;
66189;SDS011;52992;52.084;5.412;2023-08-12T10:10:32;7.03;;;2.80;;
66189;SDS011;52992;52.084;5.412;2023-08-12T10:13:01;5.80;;;3.40;;
66189;SDS011;52992;52.084;5.412;2023-08-12T10:15:28;10.50;;;3.07;;
66189;SDS011;52992;52.084;5.412;2023-08-12T10:17:56;6.10;;;2.70;;
66189;SDS011;52992;52.084;5.412;2023-08-12T10:20:23;8.37;;;3.50;;
66189;SDS011;52992;52.084;5.412;2023-08-12T10:22:51;9.90;;;3.57;;
66189;SDS011;52992;52.084;5.412;2023-08-12T10:25:19;13.07;;;3.20;;
66189;SDS011;52992;52.084;5.412;2023-08-12T10:27:50;5.77;;;2.90;;
66189;SDS011;52992;52.084;5.412;2023-08-12T10:30:17;7.57;;;3.37;;
66189;SDS011;52992;52.084;5.412;2023-08-12T10:32:43;19.30;;;3.50;;
66189;SDS011;52992;52.084;5.412;2023-08-12T10:35:12;8.23;;;3.13;;
66189;SDS011;52992;52.084;5.412;2023-08-12T10:37:39;7.23;;;2.63;;
66189;SDS011;52992;52.084;5.412;2023-08-12T10:40:09;6.57;;;2.20;;
66189;SDS011;52992;52.084;5.412;2023-08-12T10:42:47;7.87;;;2.47;;
66189;SDS011;52992;52.084;5.412;2023-08-12T10:45:15;9.03;;;2.37;;
66189;SDS011;52992;52.084;5.412;2023-08-12T10:50:30;9.83;;;2.83;;
66189;SDS011;52992;52.084;5.412;2023-08-12T10:52:58;9.03;;;2.73;;
66189;SDS011;52992;52.084;5.412;2023-08-12T10:55:25;9.50;;;2.60;;
66189;SDS011;52992;52.084;5.412;2023-08-12T10:57:54;5.77;;;2.73;;
66189;SDS011;52992;52.084;5.412;2023-08-12T11:02:52;7.23;;;2.90;;
66189;SDS011;52992;52.084;5.412;2023-08-12T11:05:21;14.07;;;3.17;;
66189;SDS011;52992;52.084;5.412;2023-08-12T11:07:59;3.63;;;2.60;;
66189;SDS011;52992;52.084;5.412;2023-08-12T11:10:33;7.30;;;2.70;;
66189;SDS011;52992;52.084;5.412;2023-08-12T11:13:02;10.27;;;3.13;;
66189;SDS011;52992;52.084;5.412;2023-08-12T11:15:33;5.93;;;2.60;;
66189;SDS011;52992;52.084;5.412;2023-08-12T11:18:14;9.17;;;2.50;;
66189;SDS011;52992;52.084;5.412;2023-08-12T11:20:43;10.10;;;2.50;;
66189;SDS011;52992;52.084;5.412;2023-08-12T11:23:10;7.30;;;2.40;;
66189;SDS011;52992;52.084;5.412;2023-08-12T11:25:38;7.43;;;2.30;;
66189;SDS011;52992;52.084;5.412;2023-08-12T11:28:06;4.27;;;2.10;;
66189;SDS011;52992;52.084;5.412;2023-08-12T11:30:34;6.50;;;2.40;;
66189;SDS011;52992;52.084;5.412;2023-08-12T11:33:01;6.57;;;2.40;;
66189;SDS011;52992;52.084;5.412;2023-08-12T11:35:29;7.57;;;2.70;;
66189;SDS011;52992;52.084;5.412;2023-08-12T11:37:57;10.30;;;2.67;;
66189;SDS011;52992;52.084;5.412;2023-08-12T11:40:26;10.77;;;2.77;;
66189;SDS011;52992;52.084;5.412;2023-08-12T11:42:54;6.07;;;2.80;;
66189;SDS011;52992;52.084;5.412;2023-08-12T11:45:25;11.63;;;2.80;;
66189;SDS011;52992;52.084;5.412;2023-08-12T11:47:52;7.50;;;2.70;;
66189;SDS011;52992;52.084;5.412;2023-08-12T11:50:22;3.17;;;2.20;;
66189;SDS011;52992;52.084;5.412;2023-08-12T11:52:51;6.80;;;2.80;;
66189;SDS011;52992;52.084;5.412;2023-08-12T11:55:19;7.30;;;2.60;;
66189;SDS011;52992;52.084;5.412;2023-08-12T11:57:46;8.70;;;2.67;;
66189;SDS011;52992;52.084;5.412;2023-08-12T12:00:13;5.43;;;2.37;;
66189;SDS011;52992;52.084;5.412;2023-08-12T12:02:47;8.50;;;2.40;;
66189;SDS011;52992;52.084;5.412;2023-08-12T12:05:16;4.13;;;2.03;;
66189;SDS011;52992;52.084;5.412;2023-08-12T12:07:49;5.40;;;2.30;;
66189;SDS011;52992;52.084;5.412;2023-08-12T12:10:21;12.53;;;2.37;;
66189;SDS011;52992;52.084;5.412;2023-08-12T12:13:00;7.23;;;2.37;;
66189;SDS011;52992;52.084;5.412;2023-08-12T12:15:29;11.37;;;2.93;;
66189;SDS011;52992;52.084;5.412;2023-08-12T12:17:57;5.73;;;1.93;;
66189;SDS011;52992;52.084;5.412;2023-08-12T12:20:24;4.77;;;2.17;;
66189;SDS011;52992;52.084;5.412;2023-08-12T12:22:53;8.40;;;2.30;;
66189;SDS011;52992;52.084;5.412;2023-08-12T12:25:21;4.97;;;2.10;;
66189;SDS011;52992;52.084;5.412;2023-08-12T12:27:48;6.43;;;2.20;;
66189;SDS011;52992;52.084;5.412;2023-08-12T12:30:15;7.67;;;1.97;;
66189;SDS011;52992;52.084;5.412;2023-08-12T12:32:43;4.90;;;2.10;;
66189;SDS011;52992;52.084;5.412;2023-08-12T12:35:11;7.37;;;2.60;;
66189;SDS011;52992;52.084;5.412;2023-08-12T12:37:39;7.20;;;2.97;;
66189;SDS011;52992;52.084;5.412;2023-08-12T12:40:06;5.20;;;2.47;;
66189;SDS011;52992;52.084;5.412;2023-08-12T12:42:34;5.27;;;2.40;;
66189;SDS011;52992;52.084;5.412;2023-08-12T12:45:01;5.73;;;2.03;;
66189;SDS011;52992;52.084;5.412;2023-08-12T12:47:28;4.63;;;1.90;;
66189;SDS011;52992;52.084;5.412;2023-08-12T12:49:55;4.67;;;1.90;;
66189;SDS011;52992;52.084;5.412;2023-08-12T12:52:22;6.73;;;2.20;;
66189;SDS011;52992;52.084;5.412;2023-08-12T12:54:49;4.17;;;2.00;;
66189;SDS011;52992;52.084;5.412;2023-08-12T12:57:16;7.13;;;1.97;;
66189;SDS011;52992;52.084;5.412;2023-08-12T12:59:43;3.47;;;1.97;;
66189;SDS011;52992;52.084;5.412;2023-08-12T13:02:10;6.43;;;1.83;;
66189;SDS011;52992;52.084;5.412;2023-08-12T13:04:37;4.20;;;1.77;;
66189;SDS011;52992;52.084;5.412;2023-08-12T13:07:04;4.17;;;2.03;;
66189;SDS011;52992;52.084;5.412;2023-08-12T13:09:31;5.40;;;2.27;;
66189;SDS011;52992;52.084;5.412;2023-08-12T13:11:58;5.43;;;2.17;;
66189;SDS011;52992;52.084;5.412;2023-08-12T13:14:25;5.37;;;2.10;;
66189;SDS011;52992;52.084;5.412;2023-08-12T13:16:52;5.53;;;2.00;;
66189;SDS011;52992;52.084;5.412;2023-08-12T13:19:19;6.67;;;2.37;;
66189;SDS011;52992;52.084;5.412;2023-08-12T13:21:45;7.40;;;2.60;;
66189;SDS011;52992;52.084;5.412;2023-08-12T13:24:13;7.57;;;2.73;;
66189;SDS011;52992;52.084;5.412;2023-08-12T13:26:39;9.07;;;2.63;;
66189;SDS011;52992;52.084;5.412;2023-08-12T13:29:06;4.37;;;2.40;;
66189;SDS011;52992;52.084;5.412;2023-08-12T13:31:34;8.20;;;2.60;;
66189;SDS011;52992;52.084;5.412;2023-08-12T13:34:01;6.30;;;2.50;;
66189;SDS011;52992;52.084;5.412;2023-08-12T13:36:28;8.13;;;2.53;;
66189;SDS011;52992;52.084;5.412;2023-08-12T13:38:56;5.77;;;1.83;;
66189;SDS011;52992;52.084;5.412;2023-08-12T13:41:26;6.53;;;2.17;;
66189;SDS011;52992;52.084;5.412;2023-08-12T13:43:53;7.40;;;2.10;;
66189;SDS011;52992;52.084;5.412;2023-08-12T13:46:21;5.57;;;2.20;;
66189;SDS011;52992;52.084;5.412;2023-08-12T13:48:48;3.07;;;1.80;;
66189;SDS011;52992;52.084;5.412;2023-08-12T13:51:15;8.97;;;2.27;;
66189;SDS011;52992;52.084;5.412;2023-08-12T13:53:42;7.67;;;2.27;;
66189;SDS011;52992;52.084;5.412;2023-08-12T13:56:09;7.00;;;2.23;;
66189;SDS011;52992;52.084;5.412;2023-08-12T13:58:36;7.47;;;2.30;;
66189;SDS011;52992;52.084;5.412;2023-08-12T14:01:03;5.83;;;2.10;;
66189;SDS011;52992;52.084;5.412;2023-08-12T14:03:31;6.27;;;2.33;;
66189;SDS011;52992;52.084;5.412;2023-08-12T14:05:59;4.30;;;1.90;;
66189;SDS011;52992;52.084;5.412;2023-08-12T14:08:26;6.70;;;2.57;;
66189;SDS011;52992;52.084;5.412;2023-08-12T14:10:53;4.43;;;2.10;;
66189;SDS011;52992;52.084;5.412;2023-08-12T14:13:20;6.10;;;2.20;;
66189;SDS011;52992;52.084;5.412;2023-08-12T14:15:47;8.13;;;2.37;;
66189;SDS011;52992;52.084;5.412;2023-08-12T14:18:14;5.43;;;2.47;;
66189;SDS011;52992;52.084;5.412;2023-08-12T14:20:41;8.70;;;2.70;;
66189;SDS011;52992;52.084;5.412;2023-08-12T14:23:08;5.67;;;2.27;;
66189;SDS011;52992;52.084;5.412;2023-08-12T14:25:35;3.53;;;1.93;;
66189;SDS011;52992;52.084;5.412;2023-08-12T14:28:02;4.83;;;2.33;;
66189;SDS011;52992;52.084;5.412;2023-08-12T14:30:29;9.80;;;3.17;;
66189;SDS011;52992;52.084;5.412;2023-08-12T14:32:56;6.63;;;2.97;;
66189;SDS011;52992;52.084;5.412;2023-08-12T14:35:23;5.60;;;2.40;;
66189;SDS011;52992;52.084;5.412;2023-08-12T14:37:50;6.33;;;2.33;;
66189;SDS011;52992;52.084;5.412;2023-08-12T14:40:17;8.80;;;2.70;;
66189;SDS011;52992;52.084;5.412;2023-08-12T14:42:44;8.73;;;2.60;;
66189;SDS011;52992;52.084;5.412;2023-08-12T14:45:11;5.77;;;2.10;;
66189;SDS011;52992;52.084;5.412;2023-08-12T14:47:38;10.60;;;2.63;;
66189;SDS011;52992;52.084;5.412;2023-08-12T14:50:06;4.47;;;2.47;;
66189;SDS011;52992;52.084;5.412;2023-08-12T14:52:34;7.40;;;2.50;;
66189;SDS011;52992;52.084;5.412;2023-08-12T14:55:02;8.30;;;2.33;;